Time;durP1;ratioP1;P1;durP2;ratioP2;P2;SDS_P1;SDS_P2;PMS_P1;PMS_P2;Temp;Humidity;BMP_temperature;BMP_pressure;BME280_temperature;BME280_humidity;BME280_pressure;Samples;Min_cycle;Max_cycle;Signal;HPM_P1;HPM_P2
2024/02/26 00:00:26;;;;;;;14.68;6.43;;;;;;;9.62;54.08;93417.41;5050613;28;20032;-72
2024/02/26 00:02:52;;;;;;;8.98;6.60;;;;;;;9.61;53.93;93407.88;5050746;28;20021;-72
2024/02/26 00:05:17;;;;;;;6.95;4.75;;;;;;;9.70;53.98;93416.59;5051544;28;20469;-72
2024/02/26 00:07:43;;;;;;;7.22;4.60;;;;;;;9.71;53.76;93402.22;5051281;28;20545;-72
2024/02/26 00:10:09;;;;;;;10.10;6.25;;;;;;;9.72;53.43;93407.22;5051694;28;20090;-72
2024/02/26 00:12:34;;;;;;;7.88;4.07;;;;;;;9.64;52.88;93385.97;5050793;28;20507;-72
2024/02/26 00:15:00;;;;;;;5.25;3.50;;;;;;;9.78;52.75;93405.19;5051302;28;20035;-72
2024/02/26 00:17:25;;;;;;;7.05;3.58;;;;;;;9.76;52.82;93418.00;5051761;28;20028;-73
2024/02/26 00:19:51;;;;;;;8.32;5.47;;;;;;;9.71;53.11;93410.19;5051153;28;20491;-72
2024/02/26 00:22:16;;;;;;;6.30;5.20;;;;;;;9.66;53.20;93402.41;5050891;28;20033;-72
2024/02/26 00:24:42;;;;;;;7.50;5.38;;;;;;;9.73;53.43;93405.34;5050842;28;20041;-72
2024/02/26 00:27:07;;;;;;;11.68;6.22;;;;;;;9.76;53.49;93402.84;5050929;28;20021;-72
2024/02/26 00:29:32;;;;;;;10.27;6.25;;;;;;;9.81;53.57;93409.84;5051270;28;20040;-72
2024/02/26 00:31:58;;;;;;;10.00;6.53;;;;;;;9.85;53.58;93400.16;5050664;28;20043;-72
2024/02/26 00:34:24;;;;;;;8.73;5.20;;;;;;;9.72;53.36;93374.56;5051120;28;20087;-72
2024/02/26 00:36:49;;;;;;;11.02;6.22;;;;;;;9.90;53.44;93384.03;5050646;28;20045;-72
2024/02/26 00:39:15;;;;;;;5.93;5.32;;;;;;;9.99;53.38;93390.09;5050742;28;20064;-72
2024/02/26 00:41:40;;;;;;;9.73;6.05;;;;;;;10.04;53.16;93386.47;5051190;28;20049;-72
2024/02/26 00:44:06;;;;;;;6.90;5.68;;;;;;;9.96;53.46;93374.81;5050682;28;20067;-72
2024/02/26 00:46:32;;;;;;;10.13;6.40;;;;;;;9.95;53.61;93364.47;5050479;28;20057;-71
2024/02/26 00:48:57;;;;;;;10.90;6.97;;;;;;;10.10;53.54;93377.22;5050554;28;20083;-72
2024/02/26 00:51:23;;;;;;;8.68;6.78;;;;;;;10.10;53.61;93375.34;5050675;28;20041;-72
2024/02/26 00:53:48;;;;;;;11.05;7.30;;;;;;;10.01;53.60;93355.25;5051188;28;20112;-72
2024/02/26 00:56:14;;;;;;;9.48;6.72;;;;;;;10.17;53.61;93372.22;5050310;28;20025;-72
2024/02/26 00:58:39;;;;;;;11.68;6.80;;;;;;;9.98;53.43;93366.50;5050150;28;20041;-72
2024/02/26 01:01:04;;;;;;;8.07;5.60;;;;;;;9.88;53.58;93331.22;5050581;28;20513;-72
2024/02/26 01:03:30;;;;;;;7.28;6.00;;;;;;;10.03;53.33;93364.44;5050480;28;20064;-72
2024/02/26 01:05:55;;;;;;;14.70;7.68;;;;;;;9.89;53.75;93351.38;5050430;28;20032;-71
2024/02/26 01:08:20;;;;;;;9.18;6.80;;;;;;;10.03;53.99;93364.44;5050707;28;20439;-72
2024/02/26 01:10:46;;;;;;;8.13;6.32;;;;;;;10.11;53.44;93360.97;5050557;28;20033;-72
2024/02/26 01:13:11;;;;;;;10.18;6.85;;;;;;;9.79;53.95;93329.72;5050248;28;20033;-72
2024/02/26 01:15:37;;;;;;;11.07;8.45;;;;;;;9.66;55.18;93359.91;5050285;28;20025;-72
2024/02/26 01:18:02;;;;;;;11.82;7.68;;;;;;;9.83;54.86;93354.53;5050607;28;20079;-72
2024/02/26 01:20:28;;;;;;;11.18;8.27;;;;;;;10.01;54.54;93355.25;5050733;28;20513;-72
2024/02/26 01:22:53;;;;;;;13.63;7.55;;;;;;;10.19;54.00;93356.72;5050194;28;20033;-72
2024/02/26 01:25:18;;;;;;;12.40;7.70;;;;;;;10.07;54.24;93346.78;5050146;28;20075;-72
2024/02/26 01:27:44;;;;;;;14.27;8.52;;;;;;;10.09;54.45;93357.84;5050000;28;20102;-72
2024/02/26 01:30:10;;;;;;;12.23;8.68;;;;;;;9.92;55.04;93351.84;5050318;28;20445;-72
2024/02/26 01:32:36;;;;;;;10.68;8.15;;;;;;;9.96;54.81;93336.81;5050379;28;20021;-72
2024/02/26 01:35:03;;;;;;;14.73;8.25;;;;;;;10.08;54.85;93350.97;5049913;28;20036;-72
2024/02/26 01:37:29;;;;;;;13.68;8.70;;;;;;;10.10;54.72;93346.13;5050441;28;20037;-72
2024/02/26 01:39:55;;;;;;;16.10;9.18;;;;;;;10.18;54.67;93349.81;5050307;28;20565;-72
2024/02/26 01:42:20;;;;;;;16.63;9.50;;;;;;;10.20;54.09;93347.63;5050533;28;20116;-72
2024/02/26 01:44:46;;;;;;;15.00;9.05;;;;;;;9.94;54.51;93309.78;5050953;28;20021;-72
2024/02/26 01:47:13;;;;;;;15.35;9.63;;;;;;;10.12;54.79;93343.16;5050046;28;20047;-72
2024/02/26 01:49:40;;;;;;;14.90;9.18;;;;;;;10.03;54.43;93321.94;5050154;28;20090;-71
2024/02/26 01:52:07;;;;;;;17.75;9.77;;;;;;;10.11;54.38;93329.09;5050179;28;20390;-72
2024/02/26 01:54:37;;;;;;;13.60;9.90;;;;;;;10.13;53.90;93329.53;5050606;28;20047;-72
2024/02/26 01:57:04;;;;;;;10.68;8.10;;;;;;;10.21;53.77;93334.03;5050728;28;20021;-72
2024/02/26 01:59:30;;;;;;;12.15;7.57;;;;;;;10.20;53.87;93327.16;5051058;28;20394;-72
2024/02/26 02:02:01;;;;;;;10.95;6.68;;;;;;;10.25;53.91;93337.59;5050520;28;20029;-72
2024/02/26 02:04:27;;;;;;;8.27;6.57;;;;;;;10.28;53.72;93330.84;5050138;28;20405;-72
2024/02/26 02:06:53;;;;;;;9.05;6.57;;;;;;;10.26;54.09;93341.81;5050345;28;20025;-72
2024/02/26 02:09:19;;;;;;;8.43;6.13;;;;;;;10.26;53.99;93333.84;5015976;28;20505;-72
2024/02/26 02:11:44;;;;;;;11.38;6.20;;;;;;;10.33;53.86;93342.09;5053313;28;20029;-72
2024/02/26 02:14:10;;;;;;;10.80;7.03;;;;;;;10.25;53.39;93321.66;5054158;28;20048;-72
2024/02/26 02:16:35;;;;;;;9.40;6.82;;;;;;;10.22;53.82;93324.94;5054142;28;20119;-72
2024/02/26 02:19:01;;;;;;;7.18;6.28;;;;;;;10.23;54.16;93334.47;5054060;28;20033;-72
2024/02/26 02:21:26;;;;;;;8.88;6.35;;;;;;;10.19;54.52;93330.91;5053890;28;20512;-72
2024/02/26 02:23:51;;;;;;;10.15;6.95;;;;;;;10.13;54.67;93336.72;5054070;28;20032;-71
2024/02/26 02:26:18;;;;;;;12.45;8.40;;;;;;;9.92;55.40;93334.03;5053954;28;20112;-72
2024/02/26 02:28:45;;;;;;;11.40;7.80;;;;;;;9.81;54.90;93300.97;5053724;28;20079;-72
2024/02/26 02:31:11;;;;;;;11.32;6.93;;;;;;;10.03;54.88;93316.63;5053717;28;20029;-72
2024/02/26 02:33:37;;;;;;;9.40;7.50;;;;;;;10.20;54.51;93321.84;5053715;28;20048;-72
2024/02/26 02:36:03;;;;;;;9.20;7.10;;;;;;;10.19;54.32;93328.25;5053255;28;20017;-72
2024/02/26 02:38:29;;;;;;;15.07;7.90;;;;;;;10.23;54.47;93342.44;5053499;28;20116;-72
2024/02/26 02:40:55;;;;;;;12.88;7.63;;;;;;;10.13;54.42;93326.88;5053286;28;20041;-72
2024/02/26 02:43:20;;;;;;;11.25;7.72;;;;;;;10.00;54.66;93297.88;5053656;28;20567;-72
2024/02/26 02:45:45;;;;;;;10.35;6.72;;;;;;;10.25;54.14;93331.50;5053473;28;20037;-72
2024/02/26 02:48:11;;;;;;;10.25;7.43;;;;;;;10.06;54.72;93331.94;5053550;28;20108;-72
2024/02/26 02:50:37;;;;;;;11.30;6.50;;;;;;;10.07;55.05;93338.81;5053509;28;20036;-72
2024/02/26 02:53:02;;;;;;;12.75;7.20;;;;;;;10.13;54.74;93352.66;5053335;28;20037;-72
2024/02/26 02:55:28;;;;;;;10.57;7.18;;;;;;;10.10;54.84;93354.09;5053421;28;20150;-72
2024/02/26 02:57:53;;;;;;;13.40;7.13;;;;;;;10.24;54.52;93344.03;5053098;28;20110;-72
2024/02/26 03:00:19;;;;;;;12.73;8.52;;;;;;;10.22;54.58;93345.44;5053137;28;20029;-72
2024/02/26 03:02:45;;;;;;;11.70;7.78;;;;;;;10.14;55.04;93344.38;5053593;28;20029;-72
2024/02/26 03:05:10;;;;;;;14.35;9.70;;;;;;;9.96;55.48;93337.59;5053079;28;20037;-72
2024/02/26 03:07:35;;;;;;;11.82;8.65;;;;;;;10.05;55.37;93351.63;5053047;28;20025;-72
2024/02/26 03:10:01;;;;;;;12.50;9.43;;;;;;;10.05;55.01;93341.00;5053085;28;20120;-72
2024/02/26 03:12:27;;;;;;;11.27;8.50;;;;;;;10.11;55.00;93355.66;5053280;28;20032;-72
2024/02/26 03:14:54;;;;;;;14.70;7.88;;;;;;;9.96;55.12;93326.97;5053116;28;20096;-71
2024/02/26 03:17:20;;;;;;;12.35;8.77;;;;;;;10.19;54.89;93344.19;5053015;28;20035;-72
2024/02/26 03:19:46;;;;;;;12.40;8.48;;;;;;;10.28;54.76;93350.25;5053118;28;20033;-73
2024/02/26 03:22:13;;;;;;;13.63;7.60;;;;;;;10.29;54.89;93341.19;5052306;28;20440;-72
2024/02/26 03:24:38;;;;;;;9.43;6.07;;;;;;;10.26;54.70;93323.22;5052693;28;20032;-72
2024/02/26 03:27:09;;;;;;;7.63;6.13;;;;;;;10.37;54.59;93326.28;5052773;28;20021;-71
2024/02/26 03:29:34;;;;;;;8.48;6.18;;;;;;;10.40;54.36;93322.22;5052927;28;20047;-73
2024/02/26 03:32:00;;;;;;;7.75;6.18;;;;;;;10.46;54.16;93321.72;5052928;28;20065;-72
2024/02/26 03:34:26;;;;;;;11.73;6.72;;;;;;;10.43;54.05;93319.69;5052579;28;20036;-72
2024/02/26 03:36:51;;;;;;;9.85;6.47;;;;;;;10.23;53.86;93291.97;5052703;28;20036;-72
2024/02/26 03:39:17;;;;;;;9.88;6.75;;;;;;;10.41;53.82;93326.44;5052943;28;20029;-73
2024/02/26 03:41:42;;;;;;;10.52;6.72;;;;;;;10.43;53.79;93327.66;5052766;28;20502;-72
2024/02/26 03:44:07;;;;;;;10.45;7.47;;;;;;;10.40;53.66;93330.19;5052202;28;20140;-73
2024/02/26 03:46:33;;;;;;;8.52;7.00;;;;;;;10.35;53.74;93327.69;5052322;28;20040;-72
2024/02/26 03:48:58;;;;;;;13.07;7.53;;;;;;;10.36;53.61;93323.94;5052319;28;20565;-72
2024/02/26 03:51:23;;;;;;;10.95;6.55;;;;;;;10.35;53.52;93311.75;5052606;28;20032;-72
2024/02/26 03:53:49;;;;;;;10.70;6.30;;;;;;;10.22;53.59;93306.34;5052684;28;20021;-72
2024/02/26 03:56:14;;;;;;;10.95;7.05;;;;;;;10.28;53.64;93318.34;5052020;28;20041;-72
2024/02/26 03:58:40;;;;;;;9.45;7.38;;;;;;;10.15;53.90;93292.81;5051966;28;20472;-72
2024/02/26 04:01:08;;;;;;;11.35;7.82;;;;;;;10.28;54.04;93313.03;5051917;28;20120;-72
2024/02/26 04:03:34;;;;;;;11.30;6.80;;;;;;;10.23;54.03;93313.22;5051524;28;20037;-72
2024/02/26 04:06:00;;;;;;;11.52;7.28;;;;;;;10.19;54.06;93314.19;5052012;28;20029;-72
2024/02/26 04:08:25;;;;;;;11.25;8.23;;;;;;;10.09;54.40;93302.06;5052888;28;20024;-72
2024/02/26 04:10:50;;;;;;;12.63;7.72;;;;;;;10.12;54.16;93319.25;5051880;28;20037;-72
2024/02/26 04:13:17;;;;;;;12.23;7.20;;;;;;;10.17;54.21;93316.41;5052062;28;20509;-72
2024/02/26 04:15:43;;;;;;;10.88;6.65;;;;;;;10.19;54.23;93316.84;5051664;28;20302;-73
2024/02/26 04:18:08;;;;;;;14.40;7.78;;;;;;;10.08;53.88;93289.09;5051444;28;20494;-72
2024/02/26 04:20:34;;;;;;;10.30;7.53;;;;;;;10.16;54.40;93298.91;5052056;28;20489;-72
2024/02/26 04:22:59;;;;;;;12.70;8.93;;;;;;;10.09;54.22;93299.41;5051633;28;20048;-72
2024/02/26 04:25:24;;;;;;;12.20;8.23;;;;;;;10.18;54.48;93307.31;5051566;28;20044;-72
2024/02/26 04:27:50;;;;;;;12.68;7.95;;;;;;;10.09;54.23;93280.81;5051555;28;20036;-72
2024/02/26 04:30:17;;;;;;;11.25;8.32;;;;;;;10.15;54.28;93284.06;5051860;28;20506;-72
2024/02/26 04:32:42;;;;;;;10.82;8.05;;;;;;;9.90;53.90;93256.53;5051556;28;20029;-72
2024/02/26 04:35:08;;;;;;;10.88;8.25;;;;;;;10.15;54.40;93292.03;5050868;28;20521;-72
2024/02/26 04:37:33;;;;;;;8.25;7.07;;;;;;;10.18;54.34;93296.69;5051426;28;20048;-72
2024/02/26 04:39:59;;;;;;;13.65;8.40;;;;;;;10.10;54.21;93279.69;5051017;28;20052;-72
2024/02/26 04:42:25;;;;;;;11.45;8.55;;;;;;;10.15;54.22;93303.44;5051513;28;20048;-72
2024/02/26 04:44:50;;;;;;;15.75;10.18;;;;;;;10.13;54.65;93289.69;5033865;28;20482;-72
2024/02/26 04:47:15;;;;;;;12.40;9.48;;;;;;;9.82;54.71;93260.03;5051436;28;20116;-72
2024/02/26 04:49:41;;;;;;;16.05;12.05;;;;;;;10.10;55.07;93300.97;5051077;28;20127;-72
2024/02/26 04:52:06;;;;;;;15.48;10.18;;;;;;;10.12;54.76;93312.03;5051157;28;20029;-72
2024/02/26 04:54:32;;;;;;;17.90;11.73;;;;;;;10.08;54.77;93319.09;5050979;28;20041;-72
2024/02/26 04:56:57;;;;;;;19.48;13.07;;;;;;;10.16;54.94;93314.84;5051143;28;20029;-71
2024/02/26 04:59:22;;;;;;;18.20;13.23;;;;;;;10.18;55.11;93313.41;5051636;28;20021;-72
2024/02/26 05:01:48;;;;;;;20.30;14.25;;;;;;;10.15;54.74;93307.97;5051185;28;20502;-72
2024/02/26 05:04:13;;;;;;;20.42;14.57;;;;;;;10.17;55.34;93325.13;5050985;28;20056;-72
2024/02/26 05:06:38;;;;;;;18.85;14.35;;;;;;;10.12;55.22;93330.63;5050804;28;20461;-72
2024/02/26 05:09:04;;;;;;;19.00;14.10;;;;;;;9.97;55.36;93301.97;5050890;28;20036;-72
2024/02/26 05:11:29;;;;;;;19.42;14.23;;;;;;;9.98;55.14;93300.84;5051421;28;20434;-72
2024/02/26 05:13:54;;;;;;;22.25;15.15;;;;;;;10.09;55.52;93341.13;5050924;28;20041;-72
2024/02/26 05:16:24;;;;;;;22.50;16.27;;;;;;;10.04;55.32;93333.34;5050625;28;20494;-72
2024/02/26 05:18:49;;;;;;;22.65;16.55;;;;;;;10.00;55.61;93346.50;5050795;28;20037;-72
2024/02/26 05:21:15;;;;;;;28.15;16.20;;;;;;;9.99;55.89;93344.94;5050971;28;20025;-72
2024/02/26 05:23:42;;;;;;;25.50;16.25;;;;;;;9.88;56.42;93335.75;5050952;28;20025;-72
2024/02/26 05:26:08;;;;;;;21.15;15.32;;;;;;;9.93;56.22;93346.19;5050659;28;20289;-72
2024/02/26 05:28:33;;;;;;;21.30;15.60;;;;;;;10.02;55.73;93344.31;5050280;28;20037;-72
2024/02/26 05:30:58;;;;;;;21.00;15.23;;;;;;;10.04;55.92;93359.91;5050423;28;20409;-72
2024/02/26 05:33:25;;;;;;;23.33;17.10;;;;;;;9.87;56.55;93352.81;5050327;28;20025;-72
2024/02/26 05:35:50;;;;;;;23.38;16.65;;;;;;;10.04;55.96;93371.31;5050840;28;20025;-72
2024/02/26 05:38:15;;;;;;;29.25;20.48;;;;;;;10.01;55.94;93365.88;5050032;28;20095;-72
2024/02/26 05:40:41;;;;;;;26.88;19.45;;;;;;;9.98;56.60;93377.91;5049967;28;20528;-72
2024/02/26 05:43:06;;;;;;;28.30;19.13;;;;;;;10.00;56.80;93369.63;5050534;28;20490;-71
2024/02/26 05:45:32;;;;;;;30.33;18.15;;;;;;;9.89;56.73;93363.88;5052576;28;20037;-72
2024/02/26 05:47:58;;;;;;;29.05;17.77;;;;;;;9.96;56.81;93372.16;5052738;28;20033;-72
2024/02/26 05:50:23;;;;;;;31.60;19.05;;;;;;;10.00;56.65;93375.72;5053635;28;20496;-73
2024/02/26 05:52:49;;;;;;;28.98;18.30;;;;;;;10.07;56.64;93373.34;5052941;28;20033;-72
2024/02/26 05:55:14;;;;;;;25.88;19.08;;;;;;;10.06;56.76;93379.75;5053457;28;20494;-72
2024/02/26 05:57:39;;;;;;;23.80;17.30;;;;;;;10.00;56.49;93375.72;5053277;28;20037;-72
2024/02/26 06:00:05;;;;;;;27.33;19.42;;;;;;;10.07;56.82;93383.97;5053974;28;20061;-72
2024/02/26 06:02:31;;;;;;;28.52;19.10;;;;;;;10.12;56.55;93383.00;5054840;28;20029;-72
2024/02/26 06:04:57;;;;;;;26.30;17.42;;;;;;;9.90;56.42;93354.81;5054016;28;20506;-72
2024/02/26 06:07:23;;;;;;;26.85;19.58;;;;;;;10.06;56.33;93374.44;5054189;28;20025;-72
2024/02/26 06:09:48;;;;;;;28.27;17.98;;;;;;;10.16;56.84;93378.63;5054563;28;20036;-72
2024/02/26 06:12:14;;;;;;;29.25;19.45;;;;;;;10.22;56.71;93383.41;5054017;28;20032;-72
2024/02/26 06:14:39;;;;;;;28.35;21.15;;;;;;;10.21;56.76;93373.91;5055422;28;20104;-72
2024/02/26 06:17:04;;;;;;;28.55;20.00;;;;;;;10.29;56.47;93389.00;5053989;28;20103;-72
2024/02/26 06:19:30;;;;;;;27.13;18.27;;;;;;;10.19;56.29;93362.81;5054024;28;20119;-72
2024/02/26 06:21:56;;;;;;;29.52;19.80;;;;;;;10.29;56.25;93386.34;5054091;28;20036;-73
2024/02/26 06:24:22;;;;;;;26.73;17.92;;;;;;;10.31;56.33;93386.03;5054000;28;20504;-73
2024/02/26 06:26:47;;;;;;;32.03;21.17;;;;;;;10.35;56.59;93386.19;5054842;28;20033;-72
2024/02/26 06:29:13;;;;;;;28.92;20.00;;;;;;;10.20;56.60;93382.97;5053196;28;20036;-72
2024/02/26 06:31:38;;;;;;;29.27;20.77;;;;;;;10.14;56.88;93378.16;5053266;28;20032;-72
2024/02/26 06:34:04;;;;;;;35.67;20.33;;;;;;;10.10;57.36;93380.66;5053817;28;20037;-72
2024/02/26 06:36:31;;;;;;;29.75;20.40;;;;;;;10.11;57.34;93384.88;5053919;28;20108;-72
2024/02/26 06:38:56;;;;;;;29.48;18.83;;;;;;;10.18;57.49;93381.72;5054013;28;20045;-72
2024/02/26 06:41:27;;;;;;;34.65;21.60;;;;;;;10.09;57.64;93392.38;5054272;28;20469;-72
2024/02/26 06:43:53;;;;;;;36.97;22.88;;;;;;;9.95;57.87;93378.53;5053528;28;20116;-73
2024/02/26 06:46:18;;;;;;;55.55;24.45;;;;;;;9.93;57.89;93380.72;5053578;28;20128;-72
2024/02/26 06:48:43;;;;;;;34.63;22.10;;;;;;;9.14;60.01;93353.97;5052908;28;20034;-72
2024/02/26 06:51:09;;;;;;;33.85;23.25;;;;;;;9.36;60.78;93398.88;5052974;28;20025;-73
2024/02/26 06:53:35;;;;;;;30.90;22.00;;;;;;;9.51;60.79;93394.94;5053704;28;20548;-72
2024/02/26 06:56:00;;;;;;;41.03;25.40;;;;;;;9.53;60.43;93387.44;5053180;28;20041;-72
2024/02/26 06:58:25;;;;;;;32.97;23.00;;;;;;;9.34;61.33;93393.09;5052987;28;20541;-72
2024/02/26 07:00:51;;;;;;;32.85;23.10;;;;;;;9.56;60.88;93386.81;5052458;28;20075;-73
2024/02/26 07:03:16;;;;;;;40.17;25.00;;;;;;;9.56;60.20;93392.88;5052160;28;20517;-72
2024/02/26 07:05:42;;;;;;;38.40;25.02;;;;;;;9.40;61.14;93384.63;5053388;28;20112;-72
2024/02/26 07:08:07;;;;;;;35.13;25.70;;;;;;;9.63;60.64;93393.19;5052530;28;20025;-72
2024/02/26 07:10:32;;;;;;;38.00;23.48;;;;;;;9.56;60.36;93405.38;5052179;28;20057;-72
2024/02/26 07:12:58;;;;;;;34.72;22.77;;;;;;;9.65;60.39;93395.50;5052596;28;20029;-72
2024/02/26 07:15:24;;;;;;;36.83;23.75;;;;;;;9.21;61.45;93389.50;5052606;28;20029;-72
2024/02/26 07:17:49;;;;;;;33.88;23.85;;;;;;;9.30;61.76;93403.53;5052901;28;20440;-72
2024/02/26 07:20:15;;;;;;;41.97;27.00;;;;;;;9.08;61.76;93387.78;5052928;28;20033;-72
2024/02/26 07:22:42;;;;;;;39.83;21.98;;;;;;;9.49;61.02;93405.09;5052174;28;20037;-72
2024/02/26 07:25:08;;;;;;;31.60;21.83;;;;;;;9.68;59.68;93393.00;5052002;28;20063;-72
2024/02/26 07:27:34;;;;;;;30.13;20.02;;;;;;;9.73;59.40;93389.41;5052044;28;20037;-72
2024/02/26 07:29:59;;;;;;;30.40;19.52;;;;;;;9.55;59.65;93401.16;5052119;28;20029;-72
2024/02/26 07:32:24;;;;;;;29.02;19.52;;;;;;;9.66;59.52;93407.69;5052256;28;20032;-72
2024/02/26 07:34:50;;;;;;;30.80;20.85;;;;;;;9.67;59.47;93414.56;5052626;28;20424;-72
2024/02/26 07:37:16;;;;;;;32.35;20.80;;;;;;;9.65;59.68;93406.91;5052578;28;20033;-72
2024/02/26 07:39:41;;;;;;;37.78;23.55;;;;;;;9.93;59.43;93412.59;5052336;28;20126;-71
2024/02/26 07:42:06;;;;;;;33.88;22.05;;;;;;;10.06;59.26;93408.19;5052476;28;20024;-72
2024/02/26 07:44:33;;;;;;;37.28;22.65;;;;;;;10.12;58.57;93405.03;5052694;28;20036;-72
2024/02/26 07:46:59;;;;;;;31.13;21.88;;;;;;;10.10;58.48;93401.94;5052192;28;20033;-72
2024/02/26 07:49:24;;;;;;;29.67;20.95;;;;;;;10.09;57.99;93397.69;5051753;28;20484;-72
2024/02/26 07:51:49;;;;;;;33.35;20.35;;;;;;;10.21;58.06;93403.13;5052165;28;20044;-73
2024/02/26 07:54:16;;;;;;;29.30;18.90;;;;;;;10.31;58.30;93402.00;5052144;28;20558;-72
2024/02/26 07:56:41;;;;;;;36.08;21.25;;;;;;;9.82;59.66;93412.19;5052299;28;20048;-72
2024/02/26 07:59:07;;;;;;;28.50;18.20;;;;;;;9.81;59.58;93409.84;5051987;28;20471;-72
2024/02/26 08:01:33;;;;;;;30.17;20.33;;;;;;;9.79;59.08;93398.75;5051853;28;20502;-72
2024/02/26 08:03:59;;;;;;;34.08;19.38;;;;;;;9.21;61.39;93373.59;5051626;28;20049;-72
2024/02/26 08:06:25;;;;;;;29.38;19.42;;;;;;;9.48;60.16;93369.03;5051199;28;20060;-72
2024/02/26 08:08:50;;;;;;;35.60;21.48;;;;;;;10.07;59.01;93410.56;5050638;28;20187;-73
2024/02/26 08:11:15;;;;;;;31.38;18.02;;;;;;;10.22;58.67;93402.00;5050862;28;20044;-72
2024/02/26 08:13:41;;;;;;;34.53;19.05;;;;;;;9.87;58.42;93397.97;5051026;28;20056;-72
2024/02/26 08:16:07;;;;;;;23.77;17.42;;;;;;;10.00;58.51;93396.97;5050846;28;20037;-72
2024/02/26 08:18:32;;;;;;;29.83;18.00;;;;;;;10.22;57.90;93378.09;5050763;28;20082;-72
2024/02/26 08:20:58;;;;;;;27.95;16.73;;;;;;;10.35;57.10;93383.50;5050251;28;20025;-71
2024/02/26 08:23:23;;;;;;;28.05;16.88;;;;;;;10.24;57.30;93381.22;5051000;28;20036;-72
2024/02/26 08:25:49;;;;;;;29.63;16.48;;;;;;;10.56;57.58;93387.03;5050430;28;20513;-73
2024/02/26 08:28:14;;;;;;;26.23;16.45;;;;;;;10.68;56.56;93395.06;5050603;28;20437;-73
2024/02/26 08:30:40;;;;;;;26.05;15.73;;;;;;;10.33;56.76;93373.97;5050666;28;20558;-72
2024/02/26 08:33:05;;;;;;;24.20;17.00;;;;;;;10.14;58.92;93402.06;5050510;28;20028;-72
2024/02/26 08:35:30;;;;;;;28.90;17.20;;;;;;;10.23;58.83;93392.94;5051305;28;20025;-72
2024/02/26 08:37:56;;;;;;;28.02;13.20;;;;;;;10.41;57.60;93390.25;5050243;28;20541;-73
2024/02/26 08:40:27;;;;;;;20.35;12.55;;;;;;;10.68;57.01;93392.41;5060821;27;20420;-73
2024/02/26 08:42:53;;;;;;;22.40;12.80;;;;;;;10.63;56.57;93381.97;5047322;28;20114;-72
2024/02/26 08:45:18;;;;;;;17.83;11.18;;;;;;;10.50;56.83;93370.47;5047482;28;20544;-73
2024/02/26 08:47:45;;;;;;;17.02;10.15;;;;;;;10.43;56.57;93382.72;5047840;28;20040;-72
2024/02/26 08:50:11;;;;;;;25.23;14.50;;;;;;;9.46;60.10;93387.91;5047391;28;20114;-72
2024/02/26 08:52:37;;;;;;;40.67;22.45;;;;;;;9.84;60.69;93387.97;5047072;28;20120;-72
2024/02/26 08:55:03;;;;;;;38.92;21.63;;;;;;;9.99;60.63;93392.75;5047340;28;20116;-72
2024/02/26 08:57:28;;;;;;;45.10;19.48;;;;;;;9.98;59.46;93401.03;5047512;28;20116;-72
2024/02/26 08:59:53;;;;;;;25.73;19.10;;;;;;;10.20;59.12;93400.78;5046839;28;20105;-72
2024/02/26 09:02:19;;;;;;;44.65;23.95;;;;;;;9.79;60.90;93390.78;5047300;28;20128;-72
2024/02/26 09:04:45;;;;;;;26.80;15.02;;;;;;;9.91;60.02;93337.00;5047127;28;20041;-72
2024/02/26 09:07:10;;;;;;;26.65;15.38;;;;;;;9.89;59.98;93393.09;5046786;28;20037;-72
2024/02/26 09:09:36;;;;;;;20.70;10.00;;;;;;;9.76;59.36;93386.13;5047019;28;20037;-72
2024/02/26 09:12:02;;;;;;;13.63;7.75;;;;;;;9.70;59.14;93380.19;5047149;28;20029;-71
2024/02/26 09:14:27;;;;;;;10.95;6.82;;;;;;;9.07;60.53;93386.22;5046997;28;20046;-72
2024/02/26 09:16:53;;;;;;;14.05;8.23;;;;;;;9.17;60.53;93391.25;5046650;28;20033;-72
2024/02/26 09:19:18;;;;;;;13.88;7.18;;;;;;;9.43;61.39;93384.03;5046879;28;20547;-72
2024/02/26 09:21:44;;;;;;;14.60;7.72;;;;;;;9.21;61.10;93384.22;5046886;28;20037;-72
2024/02/26 09:24:11;;;;;;;12.10;6.80;;;;;;;8.95;62.42;93380.78;5046400;28;20044;-72
2024/02/26 09:26:37;;;;;;;12.85;8.45;;;;;;;9.14;62.37;93386.56;5047287;28;20018;-72
2024/02/26 09:29:03;;;;;;;12.55;7.55;;;;;;;8.98;61.81;93357.06;5046331;28;20557;-72
2024/02/26 09:31:29;;;;;;;11.20;7.57;;;;;;;9.09;62.50;93370.00;5046919;28;20055;-73
2024/02/26 09:33:54;;;;;;;17.08;8.55;;;;;;;8.93;61.74;93337.88;5046139;28;20531;-72
2024/02/26 09:36:20;;;;;;;15.32;7.68;;;;;;;9.14;61.60;93370.66;5046369;28;20567;-71
2024/02/26 09:38:46;;;;;;;10.20;7.63;;;;;;;9.09;61.55;93352.22;5046667;28;20178;-71
2024/02/26 09:41:15;;;;;;;14.85;7.45;;;;;;;8.95;61.60;93370.19;5046058;28;20787;-71
2024/02/26 09:43:48;;;;;;;15.15;7.35;;;;;;;8.82;62.16;93369.22;5046409;28;20120;-71
2024/02/26 09:46:15;;;;;;;10.88;7.63;;;;;;;8.63;62.14;93323.69;5046219;28;20041;-73
2024/02/26 09:48:42;;;;;;;10.75;7.30;;;;;;;8.86;62.07;93356.91;5046311;28;20029;-73
2024/02/26 09:51:11;;;;;;;16.40;7.15;;;;;;;8.73;61.48;93349.09;5036570;28;20030;-72
2024/02/26 09:53:39;;;;;;;14.85;7.35;;;;;;;8.84;61.63;93358.31;5033143;28;20476;-73
2024/02/26 09:56:07;;;;;;;14.00;7.57;;;;;;;8.75;62.35;93352.25;5032836;28;20038;-72
2024/02/26 09:58:33;;;;;;;13.90;8.18;;;;;;;8.73;61.79;93347.25;5033422;28;20058;-72
2024/02/26 10:01:02;;;;;;;10.88;7.65;;;;;;;8.61;62.20;93330.41;5033626;28;20053;-72
2024/02/26 10:03:34;;;;;;;9.80;7.50;;;;;;;8.77;61.84;93347.38;5033230;28;20037;-72
2024/02/26 10:05:59;;;;;;;14.65;8.77;;;;;;;8.46;62.05;93319.16;5033454;28;20111;-73
2024/02/26 10:08:26;;;;;;;13.88;7.60;;;;;;;8.81;62.46;93345.66;5034208;28;20048;-72
2024/02/26 10:10:54;;;;;;;15.68;7.93;;;;;;;8.87;61.88;93321.34;5033630;28;20168;-72
2024/02/26 10:13:20;;;;;;;10.07;7.10;;;;;;;9.13;61.07;93339.91;5033206;28;20029;-72
2024/02/26 10:15:46;;;;;;;11.82;7.88;;;;;;;9.08;61.23;93336.59;5033479;28;20033;-72
2024/02/26 10:18:11;;;;;;;10.85;6.47;;;;;;;9.05;61.55;93324.72;5033044;28;20099;-72
2024/02/26 10:20:37;;;;;;;17.92;8.70;;;;;;;9.05;61.28;93330.03;5033427;28;20056;-72
2024/02/26 10:23:03;;;;;;;14.27;7.95;;;;;;;9.12;60.96;93324.28;5032819;28;20044;-72
2024/02/26 10:25:31;;;;;;;9.57;7.03;;;;;;;9.29;61.67;93325.03;5033150;28;20033;-73
2024/02/26 10:28:01;;;;;;;13.13;8.05;;;;;;;9.34;60.03;93316.91;5032823;28;20051;-72
2024/02/26 10:30:27;;;;;;;7.70;6.70;;;;;;;9.24;60.35;93316.47;5033262;28;20056;-72
2024/02/26 10:32:53;;;;;;;9.30;7.20;;;;;;;9.29;60.07;93309.09;5033017;28;20538;-70
2024/02/26 10:35:21;;;;;;;11.40;6.93;;;;;;;9.31;59.98;93296.31;5033347;28;20025;-73
2024/02/26 10:37:48;;;;;;;14.88;8.90;;;;;;;9.24;59.27;93303.97;5032650;28;20038;-72
2024/02/26 10:40:14;;;;;;;13.55;8.10;;;;;;;9.15;59.35;93308.53;5032058;28;20053;-72
2024/02/26 10:42:41;;;;;;;8.70;7.55;;;;;;;9.14;59.97;93293.72;5032792;28;20034;-73
2024/02/26 10:45:08;;;;;;;13.95;7.63;;;;;;;9.06;59.99;93299.78;5032714;28;20070;-72
2024/02/26 10:47:38;;;;;;;10.02;7.13;;;;;;;9.07;59.33;93296.03;5032904;28;20028;-73
2024/02/26 10:50:05;;;;;;;12.18;7.63;;;;;;;9.16;59.24;93291.50;5032697;28;20485;-72
2024/02/26 10:52:34;;;;;;;9.85;7.65;;;;;;;9.19;58.91;93276.84;5032211;28;20061;-73
2024/02/26 10:55:05;;;;;;;9.18;6.45;;;;;;;9.33;58.64;93283.53;5032306;28;20034;-72
2024/02/26 10:57:52;;;;;;;10.32;7.40;;;;;;;9.34;58.75;93285.06;5032417;28;20128;-73
2024/02/26 11:00:18;;;;;;;10.27;7.18;;;;;;;9.38;58.89;93285.22;5032513;28;20046;-73
2024/02/26 11:02:46;;;;;;;14.90;8.05;;;;;;;9.26;58.75;93282.44;5031778;28;20030;-73
2024/02/26 11:05:12;;;;;;;11.63;7.95;;;;;;;9.45;58.64;93283.63;5032232;28;20037;-73
2024/02/26 11:07:38;;;;;;;8.27;7.47;;;;;;;9.29;57.86;93281.81;5032166;28;20048;-73
2024/02/26 11:10:05;;;;;;;11.55;8.30;;;;;;;9.24;58.17;93285.41;5032051;28;20099;-73
2024/02/26 11:12:32;;;;;;;12.57;8.27;;;;;;;9.21;59.04;93280.72;5031974;28;20050;-72
2024/02/26 11:15:00;;;;;;;10.77;7.63;;;;;;;9.21;57.75;93286.03;5032012;28;20017;-71
2024/02/26 11:17:28;;;;;;;11.25;7.30;;;;;;;9.01;57.97;93252.19;5032665;28;20026;-72
2024/02/26 11:19:56;;;;;;;17.73;8.00;;;;;;;9.30;57.83;93284.13;5032118;28;20439;-72